Aeroporto :
LOGIN :

Iscrizione | Disclaimer

   EN    FR    IT 

 










Sommario :    VFR   VFR Marginale   IFR   IFR Intensivo   IFR Molto Intensivo
Visibilità : 
Base nubi : 
>= 8 km
>= 3000ft
5 / 8 km
1000 / 3000 ft
1500m / 5 km
500 / 1000 ft
800 / 1500m
200 / 500 ft
< 800m
< 200 ft
Simboli :   Temporali  Nebbia  Neve Forte  Precipitazioni Forti  Vento > 20 kt
SIGMETs :   Varie  Temporali  Ghiacco  Turbolenza  Onda orograficha  Ceneri Vulcaniche






- Altitudine del aeroporto : 128 ft


ETND - Diepholz

ULTIMO METAR :
  • 221020Z 26007KT 2800 -DZ BR FEW002 BKN003 03/03 Q1035 YLO YLO TEMPO AMB

METARs OBSOLETI :
  • 220920Z 26008KT 2800 -DZ BR BKN003 03/03 Q1035 YLO YLO TEMPO AMB

TAF TAF ETND
Valido dal 22 a 09 ore il 22 a 18 ore UTC


220820Z 2209/2218 25008KT 3000 BR BKN005
TEMPO 2209/2212 27005KT 1500 -DZ BKN002
TEMPO 2212/2214 28005KT 6000 NSW BKN008
BECMG 2214/2216 28006KT 7000 NSW SCT008 BKN015
TEMPO 2216/2218 29005KT 5000 BR SCT005 BKN010 BY ETGL



MetMap, La meteo Aeronautica in un colpo d'occhio ! - Copyright ORBIFLY Dicembre 2007 - Disclaimer

ORBIFLY MET'MAP TEAM :

Programmazione e sviluppo : Alexandra Zaïnal
Concezione : Baudouin d'Aumeries
Aiuto per la programmazione : Marc-Olivier Méhu
Supporto tecnico e logistico : Manuel Goepfert
Aiuto per la traduzione : Arnaldo La Scala

Contatto : metmap@orbifly.com




FONTI E CREDITI :

   NOAA